Terminal Aerodrome Forecast
Issued by NWS

Home | Current Version | Previous Version | Text Only | Print | Product List | Glossary On
Versions: 1 2 3 4 5 6 7 8 9 10 11 12 13 14 15 16 17 18 19
000
FTAK31 PAJN 272321
TAFAPG
TAF
PAPG 272321Z 2800/2824 08005KT P6SM -SHRA FEW015 SCT030 OVC060
     FM280200 06006KT P6SM VCSH SCT030 BKN050
     FM281200 06003KT P6SM FEW005 BKN050
      AMD LTD TO CLD VIS AND WIND 2806/2815=

USA.gov is the U.S. government's official web portal to all federal, state and local government web resources and services.